Friday, August 26, 2016
18:41 UTC
  |  Log In   |  Register Free
Airport Search:

Akron-Canton Regional Airport
(KCAK)

FAA data valid effective Jul 21 2016 - Sep 15 2016 (unless otherwise noted).

 
 
 
 
 
 
 
 
 
 
 
 
 
 
Current Aviation Weather for KCAK

Weather Summary


The most recent METAR observation for CAK was updated at: 12:51 UTC
METAR for CAK is not available. Closest METAR is for
METAR

METAR KCAK 261751Z VRB03KT 10SM FEW038 SCT250 29/15 A3016 RMK AO2 SLP202 T02940150 10300 20222 58003

METAR KCAK 261651Z VRB04KT 10SM FEW035 SCT250 29/16 A3016 RMK AO2 SLP202 T02890156

METAR KCAK 261551Z VRB04KT 10SM SCT028 SCT250 27/17 A3017 RMK AO2 SLP206 T02670172

METAR KAKR 261754Z 33006KT 10SM CLR 32/14 A3015 RMK AO2 SLP199 T03170139 10317 20233 58003

METAR KBJJ 261756Z VRB03KT 10SM CLR 28/15 A3016 RMK AO2 SLP207 T02830150 10289 20206 58005

METAR KCLE 261751Z 00000KT 10SM SCT250 27/17 A3017 RMK AO2 SLP211 T02720172 10278 20228 58002

TAF for CAK is not available.
TAF

KCAK - TAF KCAK 261720Z 2618/2718 33006KT P6SM BKN250

KCAK - FM262200 01003KT P6SM BKN250

KCAK - FM271400 15006KT P6SM SCT250 =

KCLE - TAF KCLE 261720Z 2618/2724 34006KT P6SM SCT250

KCLE - FM262100 01006KT P6SM BKN250

KCLE - FM271400 14006KT P6SM SCT120 OVC250 =

GlobalAir.com is loading additional information.
 Current Weather at CAK
84.0 F° (28.9 C°)

Variable winds at 4.6 mph
Pressure:
30.16 in
Humidity:
44%
Wind:
Variable at 4.6 mph
Dew Point:
60.1 F° (15.6 C°)
Visibility:
10.00 mi
CAK NOAA Radar




Find All Airport Services Find A Hotel Find A Rental Car Find A Golf Course Find A Restaurant $100 Hamburger



Airport Weather Forecast for KCAK

Translated METAR for KCAK (1751 UTC)
METAR:
KCAK 261751Z Akron Canton Regional, Akron, OH (KCAK). Aug 26, 1751Z. Wind is variable at 3 knots, 10 statute miles visibility, Few clouds at 3,800 feet, Scattered Clouds at 25,000 feet, Temperature 29°C, Dewpoint 15°C, Altimeter is 30.16. Remarks: automated station with precipitation discriminator sea level pressure 1020.2 hectopascals hourly temp 29.4°C dewpoint 15.0°C 6-hour max temp 30.0°C 6-hour min temp 22.2°C 3-hour atmospheric pressure steady or increasing, then decreasing; or decreasing then decreasing more rapidly by 0.3 hectopascals
Conditions at:
KCAK (Akron-Canton Rgnl, OH) observed 1751 UTC 26 August 2016
Temperature:
84.0 F° (28.9 C°)
Dewpoint:
not reported - refer to area weather report
Pressure:
30.16 Hg
Winds:
not reported
Visibility:
10.00
Ceiling:
at least 12,000 feet AGL
Clouds:
not reported - refer to area weather report
Remarks:

Translated TAF for TAF for CAK is not available. Refer to local area forecast.
FBO's on the Field
FBO Company Facility Photos Services Transportation Aviation Fuel Prices: Prices include tax
Catering Weather Repair Courtesy Rental Type 100LL JetA JetA+ MOGAS 8087
 
Avflight Akron-Canton

Currently rated 4.8 by 1 person
FS:Avfuel
Last Updated: Jul-27
Login to update fuel prices
SS:
Contact Avflight Akron-CantonMore FBO Information
 
McKinley Air, Inc.

Currently rated 4.8 by 8 people
FS:Phillips 66
Last Updated: Aug-17
Login to update fuel prices
SS:
Contact McKinley Air, Inc.More FBO Information
 
Add another FBO Facility Photos Catering Weather Repair Courtesy Rental Type 100LL JetA JetA+ MOGAS 8087
Services Transportation Aviation Fuel Prices: Prices include tax


model-print
model-print
model-print
model-print